Time;durP1;ratioP1;P1;durP2;ratioP2;P2;SDS_P1;SDS_P2;PMS_P1;PMS_P2;Temp;Humidity;BMP_temperature;BMP_pressure;BME280_temperature;BME280_humidity;BME280_pressure;Samples;Min_cycle;Max_cycle;Signal;HPM_P1;HPM_P2
2021/04/27 00:02:20;;;;;;;52.65;32.25;;;;;;;14.56;60.42;72200.41;4952288;28;20117;-81
2021/04/27 00:04:47;;;;;;;59.40;35.85;;;;;;;15.29;60.30;72281.91;4951995;28;20040;-81
2021/04/27 00:07:14;;;;;;;53.58;30.95;;;;;;;15.23;58.86;72277.53;4963053;28;20066;-80
2021/04/27 00:09:41;;;;;;;44.80;29.48;;;;;;;15.31;57.68;72286.47;4970310;28;20554;-80
2021/04/27 00:12:09;;;;;;;44.75;28.73;;;;;;;14.42;58.78;72183.66;4971273;28;20051;-79
2021/04/27 00:14:36;;;;;;;55.88;31.08;;;;;;;15.05;58.46;72256.59;4952628;28;20027;-80
2021/04/27 00:17:04;;;;;;;38.97;26.15;;;;;;;15.32;57.31;72287.66;4951837;29;20058;-80
2021/04/27 00:19:31;;;;;;;44.35;28.63;;;;;;;15.51;57.02;72307.00;4952159;28;20035;-81
2021/04/27 00:21:58;;;;;;;41.63;27.80;;;;;;;15.66;56.70;72327.13;4955442;28;20023;-80
2021/04/27 00:24:27;;;;;;;47.67;26.88;;;;;;;15.37;56.96;72290.88;4938680;29;20109;-81
2021/04/27 00:26:54;;;;;;;42.78;28.05;;;;;;;14.65;56.86;72205.03;4955514;29;20117;-80
2021/04/27 00:29:20;;;;;;;39.55;25.23;;;;;;;15.37;56.14;72293.66;4955390;29;20094;-80
2021/04/27 00:31:47;;;;;;;36.80;23.83;;;;;;;15.25;55.90;72279.91;4955501;29;20027;-80
2021/04/27 00:34:14;;;;;;;40.33;25.55;;;;;;;15.59;56.21;72318.75;4938364;29;20497;-79
2021/04/27 00:36:41;;;;;;;40.35;22.88;;;;;;;15.70;55.65;72331.91;4956017;28;20043;-81
2021/04/27 00:39:08;;;;;;;36.55;20.85;;;;;;;15.01;55.00;72251.81;4956228;29;20560;-92
2021/04/27 00:41:35;;;;;;;31.15;19.55;;;;;;;15.72;54.85;72334.31;4942988;29;20042;-91
2021/04/27 00:44:02;;;;;;;29.75;20.42;;;;;;;16.07;52.73;72373.78;4941703;29;20066;-91
2021/04/27 00:46:29;;;;;;;35.67;18.60;;;;;;;16.07;53.55;72374.41;4955537;28;20110;-90
2021/04/27 00:48:57;;;;;;;34.97;18.58;;;;;;;16.05;52.84;72371.41;4942463;29;20031;-90
2021/04/27 00:51:27;;;;;;;41.28;20.08;;;;;;;15.63;53.00;72323.53;4958891;28;20110;-91
2021/04/27 00:53:54;;;;;;;26.30;15.57;;;;;;;15.25;52.62;72279.31;4927436;29;20046;-91
2021/04/27 00:56:22;;;;;;;25.52;17.67;;;;;;;15.61;52.31;72321.16;4942830;29;20038;-89
2021/04/27 00:58:49;;;;;;;24.65;14.43;;;;;;;16.15;51.66;72380.59;4943708;29;20030;-92
2021/04/27 01:01:16;;;;;;;33.63;16.05;;;;;;;15.18;52.29;72272.16;4942526;29;20031;-90
2021/04/27 01:03:44;;;;;;;24.02;11.98;;;;;;;14.85;51.71;72233.88;4943917;29;20094;-90
2021/04/27 01:06:11;;;;;;;24.58;12.43;;;;;;;15.56;52.20;72315.16;4944319;29;20043;-90
2021/04/27 01:09:01;;;;;;;15.50;8.82;;;;;;;16.03;50.49;72366.25;4941875;29;20023;-90
2021/04/27 01:11:47;;;;;;;21.90;12.20;;;;;;;16.22;52.03;72388.97;4942269;29;20034;-89
2021/04/27 01:14:37;;;;;;;23.13;11.45;;;;;;;15.86;50.57;72349.84;4952948;29;20035;-91
2021/04/27 01:17:07;;;;;;;21.75;10.85;;;;;;;16.14;51.42;72382.16;4931052;29;20525;-90
2021/04/27 01:20:06;;;;;;;23.02;12.88;;;;;;;16.37;50.73;72409.09;4957179;28;20086;-90
2021/04/27 01:22:54;;;;;;;23.70;13.93;;;;;;;16.63;52.02;72435.63;4960355;29;20374;-90
2021/04/27 01:25:35;;;;;;;24.40;15.02;;;;;;;16.73;51.52;72450.38;4965012;28;20081;-90
2021/04/27 01:28:05;;;;;;;20.73;12.02;;;;;;;16.69;50.64;72442.81;4956692;29;20039;-90
2021/04/27 01:30:38;;;;;;;19.48;10.55;;;;;;;16.50;50.31;72417.88;4951481;28;20034;-90
2021/04/27 01:33:11;;;;;;;29.75;12.85;;;;;;;16.95;49.06;72472.72;4939999;29;20085;-90
2021/04/27 01:35:39;;;;;;;22.02;11.18;;;;;;;16.82;49.27;72460.56;4942025;28;20028;-92
2021/04/27 01:38:07;;;;;;;14.77;8.40;;;;;;;16.38;48.30;72404.13;4949745;28;20038;-94
2021/04/27 01:40:34;;;;;;;18.83;9.18;;;;;;;14.29;47.68;72169.34;4950484;28;20027;-92
2021/04/27 01:43:03;;;;;;;16.95;10.48;;;;;;;16.30;48.88;72400.72;4940360;29;20109;-93
2021/04/27 01:45:32;;;;;;;25.98;9.77;;;;;;;16.25;49.37;72395.34;4939377;29;20062;-89
2021/04/27 01:48:00;;;;;;;14.95;8.88;;;;;;;17.01;49.16;72482.72;4938896;29;20035;-92
2021/04/27 01:50:28;;;;;;;17.67;10.18;;;;;;;16.70;49.14;72444.00;4953357;28;20031;-91
2021/04/27 01:52:56;;;;;;;16.67;10.52;;;;;;;15.65;49.99;72322.56;4940455;29;20384;-91
2021/04/27 01:55:23;;;;;;;21.30;8.68;;;;;;;16.65;48.69;72440.81;4939662;29;20039;-91
2021/04/27 01:57:50;;;;;;;12.20;8.50;;;;;;;16.08;48.96;72375.00;4932172;29;20059;-93
2021/04/27 02:00:22;;;;;;;12.65;7.90;;;;;;;16.20;49.20;72389.34;4942296;28;20053;-93
2021/04/27 02:02:49;;;;;;;21.42;10.43;;;;;;;16.33;49.69;72404.31;4949834;29;20122;-92
2021/04/27 02:05:18;;;;;;;28.73;12.15;;;;;;;16.12;49.76;72377.59;4939287;29;20082;-91
2021/04/27 02:07:45;;;;;;;20.42;12.20;;;;;;;16.16;49.32;72384.56;4941513;29;20078;-92
2021/04/27 02:10:13;;;;;;;22.10;13.15;;;;;;;16.83;49.34;72462.34;4940457;29;20087;-92
2021/04/27 02:12:46;;;;;;;24.05;15.05;;;;;;;16.97;49.52;72475.13;4941054;29;20024;-92
2021/04/27 02:15:16;;;;;;;26.40;15.02;;;;;;;16.45;49.00;72418.06;4946123;28;20113;-91
2021/04/27 02:18:01;;;;;;;22.48;14.90;;;;;;;16.44;49.17;72414.09;4939517;29;20027;-88
2021/04/27 02:20:30;;;;;;;23.73;16.05;;;;;;;16.80;49.71;72453.19;4938517;29;20114;-88
2021/04/27 02:23:00;;;;;;;25.73;17.17;;;;;;;15.72;50.94;72334.31;4938812;29;20051;-88
2021/04/27 02:25:27;;;;;;;;;;;;;;;16.68;51.04;72441.59;4943426;28;20071;-89
2021/04/27 02:27:55;;;;;;;28.63;19.30;;;;;;;16.64;51.38;72440.19;4935141;29;19941;-88
2021/04/27 02:30:24;;;;;;;30.00;17.48;;;;;;;16.81;50.55;72459.94;4938096;29;20114;-86
2021/04/27 02:32:52;;;;;;;30.73;17.97;;;;;;;16.26;50.02;72393.75;4938097;29;20062;-87
2021/04/27 02:35:21;;;;;;;33.60;18.63;;;;;;;14.76;51.84;72220.38;4938809;28;20033;-89
2021/04/27 02:37:50;;;;;;;31.35;18.73;;;;;;;15.25;54.37;72279.91;4939804;28;20105;-85
2021/04/27 02:40:25;;;;;;;40.47;19.77;;;;;;;15.11;56.26;72263.78;4941167;29;20058;-88
2021/04/27 02:42:55;;;;;;;30.42;19.15;;;;;;;15.51;55.84;72309.19;4922922;29;20024;-91
2021/04/27 02:45:31;;;;;;;35.28;21.02;;;;;;;15.18;56.18;72272.16;4904738;29;20060;-91
2021/04/27 02:48:14;;;;;;;46.10;21.30;;;;;;;14.85;55.83;72228.34;4944162;29;20090;-93
2021/04/27 02:50:47;;;;;;;31.92;19.70;;;;;;;14.75;56.61;72219.75;4938128;28;20035;-88
2021/04/27 02:53:15;;;;;;;34.80;22.50;;;;;;;14.03;56.01;72138.88;4968773;28;20118;-88
2021/04/27 02:55:42;;;;;;;32.53;20.77;;;;;;;15.17;56.18;72270.34;4973069;28;20023;-88
2021/04/27 02:58:10;;;;;;;43.60;21.60;;;;;;;15.32;55.30;72284.91;4958105;29;20082;-91
2021/04/27 03:00:37;;;;;;;41.83;21.52;;;;;;;15.47;55.54;72305.00;4938304;28;20039;-89
2021/04/27 03:03:04;;;;;;;32.20;20.80;;;;;;;15.46;55.27;72304.41;4966950;28;20027;-91
2021/04/27 03:05:32;;;;;;;34.00;21.77;;;;;;;16.04;54.23;72367.44;4938308;29;20147;-91
2021/04/27 03:07:59;;;;;;;31.95;21.77;;;;;;;14.76;54.42;72223.72;4952640;28;20040;-89
2021/04/27 03:10:26;;;;;;;41.03;22.73;;;;;;;15.99;53.92;72357.09;4953360;28;20030;-89
2021/04/27 03:12:52;;;;;;;34.20;19.10;;;;;;;15.78;54.28;72340.88;4957901;29;20031;-91
2021/04/27 03:15:20;;;;;;;24.38;17.05;;;;;;;14.49;53.71;72189.25;4947868;29;20019;-92
2021/04/27 03:17:49;;;;;;;25.15;16.35;;;;;;;15.71;53.84;72333.09;4931127;29;20036;-92
2021/04/27 03:20:16;;;;;;;27.35;18.23;;;;;;;15.84;53.85;72345.28;4952558;29;20031;-90
2021/04/27 03:22:43;;;;;;;23.08;16.13;;;;;;;15.98;53.16;72364.22;4956899;28;20021;-87
2021/04/27 03:25:13;;;;;;;28.52;16.25;;;;;;;16.26;52.12;72396.53;4961915;29;20039;-89
2021/04/27 03:27:41;;;;;;;21.88;14.43;;;;;;;16.52;51.64;72425.84;4951363;29;20039;-89
2021/04/27 03:30:09;;;;;;;26.27;14.43;;;;;;;16.11;51.72;72378.59;4950396;29;20055;-90
2021/04/27 03:32:36;;;;;;;23.48;16.27;;;;;;;16.48;51.51;72421.66;4942125;29;20031;-91
2021/04/27 03:35:06;;;;;;;25.67;14.60;;;;;;;16.55;51.06;72430.03;4944682;28;20059;-89
2021/04/27 03:37:33;;;;;;;24.30;14.43;;;;;;;15.79;52.75;72338.69;4942244;29;20125;-90
2021/04/27 03:40:00;;;;;;;26.38;15.93;;;;;;;15.56;54.39;72315.78;4938105;29;20036;-90
2021/04/27 03:42:27;;;;;;;26.48;16.67;;;;;;;15.55;54.27;72311.19;4938193;29;20126;-88
2021/04/27 03:44:54;;;;;;;23.92;16.42;;;;;;;15.66;54.87;72324.38;4938623;29;20035;-90
2021/04/27 03:47:21;;;;;;;25.88;16.88;;;;;;;14.80;54.79;72227.31;4940616;28;20043;-89
2021/04/27 03:49:48;;;;;;;21.02;14.20;;;;;;;14.99;53.45;72246.66;4957921;28;20119;-90
2021/04/27 03:52:15;;;;;;;39.45;15.85;;;;;;;16.14;53.21;72379.41;4951142;28;20028;-89
2021/04/27 03:54:41;;;;;;;24.27;14.13;;;;;;;15.64;52.50;72324.75;4951529;29;20046;-88
2021/04/27 03:57:08;;;;;;;20.42;12.98;;;;;;;16.86;52.26;72461.97;4971279;28;20031;-90
2021/04/27 03:59:35;;;;;;;27.75;14.15;;;;;;;16.65;52.32;72440.81;4973487;28;20027;-89
2021/04/27 04:02:02;;;;;;;43.42;15.40;;;;;;;16.18;52.66;72384.19;4952772;29;20028;-89
2021/04/27 04:04:29;;;;;;;29.05;14.82;;;;;;;16.38;51.92;72409.69;4955277;29;20038;-90
2021/04/27 04:06:56;;;;;;;25.70;14.70;;;;;;;15.95;53.28;72357.28;4957971;28;20049;-92
2021/04/27 04:09:23;;;;;;;32.38;15.98;;;;;;;15.70;52.08;72329.13;4953620;29;20039;-90
2021/04/27 04:11:50;;;;;;;22.05;13.85;;;;;;;16.95;51.33;72476.09;4943273;29;20029;-90
2021/04/27 04:14:17;;;;;;;27.30;15.05;;;;;;;17.06;51.38;72483.13;4943418;29;20103;-90
2021/04/27 04:16:44;;;;;;;26.02;16.00;;;;;;;16.65;51.88;72441.38;4942611;29;20035;-90
2021/04/27 04:19:11;;;;;;;26.77;15.32;;;;;;;17.14;50.75;72494.28;4942865;29;20572;-90
2021/04/27 04:21:39;;;;;;;38.33;17.60;;;;;;;17.00;51.27;72473.16;4960062;29;20063;-91
2021/04/27 04:24:06;;;;;;;28.95;17.35;;;;;;;16.85;51.04;72460.75;4946509;29;20043;-90
2021/04/27 04:26:33;;;;;;;31.40;18.45;;;;;;;16.97;49.61;72477.91;4941353;29;20118;-90
2021/04/27 04:28:59;;;;;;;27.95;18.30;;;;;;;17.42;49.34;72523.84;4956373;28;20041;-90
2021/04/27 04:31:26;;;;;;;44.47;18.10;;;;;;;17.85;49.47;72579.09;4960845;28;20119;-89
2021/04/27 04:33:53;;;;;;;27.77;17.10;;;;;;;16.55;50.51;72430.03;4948908;29;20035;-90
2021/04/27 04:36:20;;;;;;;39.17;16.45;;;;;;;16.81;52.32;72459.94;4979846;28;20078;-90
2021/04/27 04:38:47;;;;;;;25.23;16.20;;;;;;;16.67;52.38;72440.41;4949059;28;20541;-89
2021/04/27 04:41:14;;;;;;;27.25;16.55;;;;;;;16.51;51.97;72422.47;4959007;28;20031;-89
2021/04/27 04:43:41;;;;;;;23.20;15.00;;;;;;;16.26;51.56;72393.75;4960164;28;20026;-90
2021/04/27 04:46:07;;;;;;;28.17;15.70;;;;;;;16.90;51.29;72469.53;4946716;29;20059;-90
2021/04/27 04:48:34;;;;;;;27.67;15.82;;;;;;;16.23;49.96;72392.34;4942472;28;20031;-89
2021/04/27 04:51:02;;;;;;;22.80;12.95;;;;;;;16.43;50.02;72410.13;4952059;29;20110;-89
2021/04/27 04:53:29;;;;;;;24.15;15.80;;;;;;;17.02;50.73;72483.91;4940420;29;20055;-91
2021/04/27 04:55:56;;;;;;;31.48;16.85;;;;;;;17.56;49.49;72546.16;4941158;29;20031;-90
2021/04/27 04:58:23;;;;;;;25.58;13.85;;;;;;;17.80;48.45;72570.91;4940497;29;20432;-86
2021/04/27 05:00:50;;;;;;;24.00;12.68;;;;;;;17.99;48.60;72590.31;4933267;29;20025;-86
2021/04/27 05:03:17;;;;;;;20.67;13.18;;;;;;;16.86;49.02;72464.75;4925578;29;20024;-85
2021/04/27 05:05:44;;;;;;;17.48;11.52;;;;;;;17.18;49.18;72499.09;4956886;28;20492;-87
2021/04/27 05:08:27;;;;;;;27.15;14.70;;;;;;;16.23;49.89;72390.16;4952021;29;20058;-84
2021/04/27 05:10:53;;;;;;;32.75;15.20;;;;;;;16.56;50.15;72425.06;4949613;29;20039;-86
2021/04/27 05:13:20;;;;;;;24.73;15.50;;;;;;;16.37;50.29;72408.50;4958638;28;20057;-86
2021/04/27 05:15:47;;;;;;;30.20;16.88;;;;;;;17.00;50.49;72481.47;4951105;29;20028;-86
2021/04/27 05:18:15;;;;;;;30.17;16.00;;;;;;;16.27;51.83;72397.72;4938812;29;20041;-86
2021/04/27 05:20:42;;;;;;;22.02;13.90;;;;;;;16.66;52.35;72442.59;4932841;29;20031;-86
2021/04/27 05:23:09;;;;;;;33.83;15.88;;;;;;;16.15;52.25;72377.81;4938585;29;20031;-88
2021/04/27 05:25:35;;;;;;;19.98;11.93;;;;;;;16.41;51.93;72410.50;4940279;29;20496;-88
2021/04/27 05:28:02;;;;;;;25.48;13.85;;;;;;;15.63;53.51;72320.19;4938949;29;20110;-87
2021/04/27 05:30:29;;;;;;;17.67;11.38;;;;;;;16.20;52.96;72383.81;4940204;29;20051;-88
2021/04/27 05:32:56;;;;;;;25.98;12.55;;;;;;;16.31;53.26;72401.31;4955975;29;20078;-86
2021/04/27 05:35:23;;;;;;;22.80;12.98;;;;;;;16.22;53.18;72391.75;4938369;28;20503;-86
2021/04/27 05:37:50;;;;;;;18.15;10.82;;;;;;;15.08;54.28;72257.41;4941006;28;20058;-86
2021/04/27 05:40:17;;;;;;;19.25;11.52;;;;;;;15.54;55.20;72312.78;4954876;28;20109;-87
2021/04/27 05:42:44;;;;;;;16.73;11.25;;;;;;;14.69;55.96;72211.97;4975353;28;20114;-88
2021/04/27 05:45:12;;;;;;;23.52;11.80;;;;;;;14.98;54.65;72245.47;4958506;28;20073;-87
2021/04/27 05:47:39;;;;;;;18.17;10.05;;;;;;;15.07;55.64;72253.44;4975860;28;20026;-87
2021/04/27 05:50:06;;;;;;;23.33;11.07;;;;;;;15.62;54.58;72319.56;4959159;28;20027;-86
2021/04/27 05:52:33;;;;;;;22.23;10.73;;;;;;;15.26;54.78;72280.50;4960841;28;20331;-87
2021/04/27 05:55:01;;;;;;;23.38;10.07;;;;;;;15.42;56.09;72299.63;4961687;28;20110;-87
2021/04/27 05:57:27;;;;;;;24.00;11.65;;;;;;;14.56;56.22;72200.41;4960877;28;20033;-87
2021/04/27 05:59:54;;;;;;;23.48;12.25;;;;;;;14.36;57.22;72174.34;4963024;28;20109;-86
2021/04/27 06:02:21;;;;;;;23.23;11.35;;;;;;;14.76;56.10;72223.13;4961232;28;20118;-86
2021/04/27 06:04:48;;;;;;;20.92;11.90;;;;;;;14.86;56.54;72235.06;4960307;28;20026;-87
2021/04/27 06:07:15;;;;;;;21.00;10.80;;;;;;;14.83;57.22;72231.50;4975214;28;20058;-88
2021/04/27 06:09:42;;;;;;;21.92;11.13;;;;;;;14.78;56.84;72225.50;4953565;29;20065;-87
2021/04/27 06:12:09;;;;;;;17.00;10.60;;;;;;;14.15;56.85;72147.09;4955651;29;20515;-87
2021/04/27 06:14:35;;;;;;;15.85;10.98;;;;;;;14.62;56.66;72206.97;4955368;29;20054;-86
2021/04/27 06:17:03;;;;;;;22.50;11.48;;;;;;;15.14;56.17;72261.81;4954957;28;20465;-86
2021/04/27 06:19:29;;;;;;;26.55;11.35;;;;;;;14.89;55.46;72238.69;4938027;29;20035;-87
2021/04/27 06:21:56;;;;;;;15.40;11.05;;;;;;;14.51;55.57;72195.03;4937998;29;20027;-87
2021/04/27 06:24:23;;;;;;;23.30;11.60;;;;;;;14.81;56.09;72223.56;4938029;29;20055;-87
2021/04/27 06:26:50;;;;;;;18.35;10.15;;;;;;;14.88;56.67;72231.34;4937513;29;20035;-87
2021/04/27 06:29:17;;;;;;;27.52;11.45;;;;;;;14.53;56.59;72196.81;4954808;28;20027;-86
2021/04/27 06:31:44;;;;;;;23.75;10.68;;;;;;;14.32;56.13;72172.91;4936764;29;20034;-86
2021/04/27 06:34:10;;;;;;;25.25;11.60;;;;;;;14.39;56.34;72177.94;4937372;29;20023;-85
2021/04/27 06:36:37;;;;;;;17.30;9.70;;;;;;;15.79;55.31;72342.09;4937455;29;20042;-86
2021/04/27 06:39:06;;;;;;;15.35;10.02;;;;;;;15.57;55.93;72313.59;4954769;29;20023;-87
2021/04/27 06:41:33;;;;;;;25.10;11.30;;;;;;;14.72;56.67;72215.56;4951510;29;20027;-87
2021/04/27 06:44:03;;;;;;;22.30;11.68;;;;;;;15.24;56.86;72278.72;4937785;29;20037;-88
2021/04/27 06:46:30;;;;;;;17.95;11.15;;;;;;;14.83;56.96;72231.50;4936752;29;20023;-86
2021/04/27 06:48:57;;;;;;;17.15;10.55;;;;;;;13.84;57.32;72114.03;4937471;29;20038;-87
2021/04/27 06:51:24;;;;;;;21.38;11.30;;;;;;;15.45;56.31;72300.44;4940626;28;20114;-87
2021/04/27 06:53:51;;;;;;;20.27;10.65;;;;;;;15.33;56.04;72288.88;4931148;29;20027;-87
2021/04/27 06:56:18;;;;;;;18.13;10.48;;;;;;;15.50;55.83;72308.00;4937302;29;20477;-88
2021/04/27 06:58:45;;;;;;;20.77;9.95;;;;;;;15.12;54.39;72264.34;4938221;29;20035;-86
2021/04/27 07:01:12;;;;;;;25.65;11.02;;;;;;;14.35;55.18;72176.50;4938745;28;20081;-87
2021/04/27 07:03:43;;;;;;;24.10;9.98;;;;;;;14.00;54.95;72135.91;4953436;28;20034;-92
2021/04/27 07:06:09;;;;;;;;;;;;;;;15.40;54.47;72297.22;4942948;29;20074;-91
2021/04/27 07:08:37;;;;;;;19.85;10.82;;;;;;;14.89;55.34;72235.31;4943322;29;19915;-93
2021/04/27 07:11:05;;;;;;;16.55;9.65;;;;;;;15.77;55.32;72339.09;4952420;28;20539;-93
2021/04/27 07:13:31;;;;;;;15.80;9.52;;;;;;;14.94;55.36;72240.69;4955222;28;20560;-92
2021/04/27 07:15:58;;;;;;;20.75;9.93;;;;;;;14.64;55.03;72206.59;4961317;29;20011;-89
2021/04/27 07:18:26;;;;;;;23.48;10.18;;;;;;;15.28;55.93;72280.72;4955494;29;20035;-93
2021/04/27 07:20:52;;;;;;;33.58;11.93;;;;;;;13.79;55.63;72105.88;4958684;28;20031;-92
2021/04/27 07:23:20;;;;;;;21.63;9.80;;;;;;;14.78;55.83;72222.75;4959268;28;20031;-94
2021/04/27 07:25:47;;;;;;;20.38;8.65;;;;;;;15.12;55.59;72264.97;4958350;28;20052;-93
2021/04/27 07:28:14;;;;;;;11.07;8.02;;;;;;;13.32;55.44;72057.06;4947428;29;20043;-94
2021/04/27 07:30:41;;;;;;;10.27;7.50;;;;;;;14.71;55.87;72211.59;4954534;28;20019;-93
2021/04/27 07:33:08;;;;;;;13.40;7.47;;;;;;;14.08;56.14;72144.84;4961275;28;20015;-93
2021/04/27 07:35:35;;;;;;;12.43;6.75;;;;;;;14.03;56.75;72138.88;4961110;28;20041;-94
2021/04/27 07:38:03;;;;;;;13.25;6.95;;;;;;;14.54;56.87;72194.63;4958422;28;20027;-93
2021/04/27 07:40:36;;;;;;;8.15;6.32;;;;;;;13.59;57.27;72088.72;4966825;28;20035;-93
2021/04/27 07:43:03;;;;;;;7.82;5.47;;;;;;;14.08;57.66;72144.84;4969587;28;20041;-95
2021/04/27 07:45:33;;;;;;;13.52;6.43;;;;;;;14.24;58.31;72163.38;4955909;29;20035;-93
2021/04/27 07:48:03;;;;;;;11.05;7.50;;;;;;;13.17;58.25;72040.34;4940315;29;20118;-94
2021/04/27 07:50:30;;;;;;;15.15;6.97;;;;;;;14.08;59.31;72145.44;4931228;29;20552;-94
2021/04/27 07:52:57;;;;;;;12.45;6.10;;;;;;;13.55;59.59;72081.78;4947153;29;20039;-93
2021/04/27 07:55:24;;;;;;;11.93;6.35;;;;;;;14.29;59.50;72168.75;4945795;29;20031;-93
2021/04/27 07:57:52;;;;;;;13.95;6.13;;;;;;;14.07;60.02;72141.50;4944482;29;20083;-93
2021/04/27 08:00:20;;;;;;;7.35;6.32;;;;;;;13.89;60.04;72122.75;4948482;29;20024;-91
2021/04/27 08:02:49;;;;;;;10.35;5.30;;;;;;;14.55;59.76;72199.19;4958693;28;20031;-92
2021/04/27 08:05:16;;;;;;;12.32;5.35;;;;;;;14.50;59.27;72187.69;4948690;29;20038;-93
2021/04/27 08:07:43;;;;;;;9.27;6.15;;;;;;;14.12;59.01;72146.25;4945167;29;20031;-92
2021/04/27 08:10:14;;;;;;;10.20;5.30;;;;;;;14.88;58.40;72234.72;4944214;29;20056;-93
2021/04/27 08:12:48;;;;;;;9.02;4.13;;;;;;;15.13;58.69;72266.16;4945094;28;20454;-92
2021/04/27 08:15:18;;;;;;;9.80;6.05;;;;;;;14.16;59.44;72148.88;4935877;28;20035;-82
2021/04/27 08:17:46;;;;;;;13.50;5.18;;;;;;;15.03;59.67;72254.81;4964418;28;20045;-82
2021/04/27 08:20:14;;;;;;;10.55;4.78;;;;;;;14.81;59.64;72228.50;4936837;29;20594;-82
2021/04/27 08:22:43;;;;;;;18.90;4.80;;;;;;;14.44;59.52;72186.66;4948750;29;20413;-82
2021/04/27 08:25:13;;;;;;;13.27;3.80;;;;;;;13.77;60.32;72109.63;4948541;28;20389;-82
2021/04/27 08:27:40;;;;;;;;;;;;;;;14.99;60.11;72249.44;4945083;28;20492;-83
2021/04/27 08:30:07;;;;;;;9.00;4.10;;;;;;;15.03;59.74;72249.25;4930082;29;19957;-84
2021/04/27 08:32:34;;;;;;;17.60;4.53;;;;;;;15.02;59.65;72253.00;4951992;29;20019;-83
2021/04/27 08:35:02;;;;;;;9.50;3.83;;;;;;;14.26;59.12;72165.16;4932444;29;20028;-85
2021/04/27 08:37:30;;;;;;;6.03;4.72;;;;;;;14.04;58.63;72137.91;4964553;28;20031;-86
2021/04/27 08:39:58;;;;;;;5.90;3.58;;;;;;;14.43;58.37;72184.88;4938471;28;20035;-91
2021/04/27 08:42:26;;;;;;;11.15;4.50;;;;;;;15.33;57.77;72286.09;4961476;29;20087;-89
2021/04/27 08:44:55;;;;;;;8.20;3.83;;;;;;;14.39;58.60;72180.09;4947522;29;20110;-92
2021/04/27 08:47:24;;;;;;;9.82;3.88;;;;;;;13.25;59.36;72046.56;4962799;29;20090;-91
2021/04/27 08:49:52;;;;;;;9.63;4.63;;;;;;;14.48;61.84;72190.84;4956064;29;20035;-92
2021/04/27 08:52:19;;;;;;;10.35;4.47;;;;;;;13.59;62.99;72088.72;4955177;29;20381;-90
2021/04/27 08:54:46;;;;;;;10.52;4.70;;;;;;;14.34;63.13;72174.72;4952335;29;20035;-89
2021/04/27 08:57:15;;;;;;;13.13;4.20;;;;;;;13.85;65.32;72118.56;4952393;29;20027;-91
2021/04/27 08:59:43;;;;;;;12.23;4.88;;;;;;;14.25;64.21;72158.44;4938917;29;20107;-91
2021/04/27 09:02:13;;;;;;;12.95;4.43;;;;;;;11.74;62.80;71875.69;4960115;28;20076;-92
2021/04/27 09:04:50;;;;;;;9.15;4.53;;;;;;;14.31;64.30;72165.59;4978159;28;20121;-89
2021/04/27 09:07:21;;;;;;;11.50;4.30;;;;;;;13.81;62.84;72108.84;4947956;28;20102;-91
2021/04/27 09:10:00;;;;;;;9.00;4.13;;;;;;;14.31;63.65;72171.13;4963663;28;20039;-91
2021/04/27 09:12:31;;;;;;;8.95;4.55;;;;;;;13.92;65.99;72123.56;4966052;28;20035;-92
2021/04/27 09:15:04;;;;;;;10.30;5.75;;;;;;;12.75;68.02;71991.41;4961813;29;20051;-94
2021/04/27 09:17:34;;;;;;;9.45;4.72;;;;;;;12.77;66.74;71988.28;4962859;28;20047;-94
2021/04/27 09:20:16;;;;;;;11.88;4.20;;;;;;;12.47;67.94;71959.22;4979685;28;20042;-95
2021/04/27 09:23:09;;;;;;;8.48;5.22;;;;;;;12.72;65.77;71989.03;4981687;28;20095;-91
2021/04/27 09:25:37;;;;;;;8.73;5.82;;;;;;;13.71;67.24;72107.38;4951474;29;20078;-93
2021/04/27 09:28:06;;;;;;;8.88;5.30;;;;;;;12.13;67.18;71920.44;4969301;29;20385;-93
2021/04/27 09:30:40;;;;;;;9.77;6.18;;;;;;;12.32;67.63;71942.50;4941310;28;20039;-92
2021/04/27 09:33:09;;;;;;;11.15;5.57;;;;;;;13.16;66.79;72033.03;4962400;29;20031;-92
2021/04/27 09:35:50;;;;;;;7.05;5.00;;;;;;;14.04;66.59;72140.66;4977085;28;20083;-95
2021/04/27 09:38:30;;;;;;;13.68;5.65;;;;;;;11.23;65.96;71817.25;4959624;28;20014;-94
2021/04/27 09:40:58;;;;;;;;;;;;;;;13.92;66.19;72126.34;4972254;28;20047;-94
2021/04/27 09:43:32;;;;;;;12.10;4.85;;;;;;;12.41;66.32;71953.22;4968752;28;20422;-92
2021/04/27 09:46:01;;;;;;;11.15;4.57;;;;;;;14.16;65.74;72153.81;4969340;28;20039;-96
2021/04/27 09:52:22;;;;;;;10.75;5.30;;;;;;;14.43;64.85;72184.88;4884759;29;20265;-92
2021/04/27 09:58:41;;;;;;;9.82;5.00;;;;;;;14.39;64.67;72180.69;4901500;29;20090;-94
2021/04/27 10:01:14;;;;;;;12.02;5.63;;;;;;;11.85;64.64;71888.81;4894009;29;20025;-92
2021/04/27 10:07:04;;;;;;;13.25;6.28;;;;;;;11.76;64.90;71878.66;4892340;29;20055;-93
2021/04/27 10:09:35;;;;;;;10.60;5.15;;;;;;;14.40;65.19;72181.88;4887853;29;20511;-93
2021/04/27 10:12:06;;;;;;;9.63;5.45;;;;;;;14.33;64.94;72174.09;4887811;29;20141;-90
2021/04/27 10:14:33;;;;;;;9.05;5.18;;;;;;;13.18;65.85;72038.78;4954348;29;20536;-93
2021/04/27 10:17:01;;;;;;;6.40;5.32;;;;;;;14.35;66.58;72170.97;4942687;29;20035;-92
2021/04/27 10:19:28;;;;;;;10.02;4.43;;;;;;;14.07;66.28;72144.25;4937246;29;20119;-90
2021/04/27 10:21:55;;;;;;;11.57;4.97;;;;;;;14.28;66.43;72168.16;4947579;29;20034;-91
2021/04/27 10:24:24;;;;;;;15.10;5.95;;;;;;;14.28;66.13;72168.16;4963861;28;20062;-95
2021/04/27 10:26:52;;;;;;;14.82;5.95;;;;;;;13.62;67.22;72091.72;4942931;29;20063;-89
2021/04/27 10:29:22;;;;;;;11.23;4.95;;;;;;;14.41;67.40;72183.09;4935426;29;20036;-88
2021/04/27 10:32:17;;;;;;;12.80;4.25;;;;;;;14.44;67.69;72180.53;4937567;29;20084;-94
2021/04/27 10:35:02;;;;;;;15.98;5.90;;;;;;;14.51;68.30;72192.25;4939356;29;20042;-93
2021/04/27 10:37:32;;;;;;;15.77;5.38;;;;;;;13.98;68.48;72132.91;4945056;29;20050;-95
2021/04/27 10:39:58;;;;;;;10.30;5.20;;;;;;;13.89;68.92;72123.34;4946392;29;20495;-95
2021/04/27 10:42:30;;;;;;;16.42;5.97;;;;;;;12.41;69.12;71952.63;4956485;28;20031;-94
2021/04/27 10:45:01;;;;;;;17.88;5.22;;;;;;;12.68;70.04;71981.50;4970231;28;20041;-95
2021/04/27 10:47:38;;;;;;;17.13;6.28;;;;;;;13.45;70.43;72067.09;4955966;29;20128;-96
2021/04/27 10:50:05;;;;;;;13.07;5.25;;;;;;;13.00;69.92;72020.66;4944147;29;20031;-96
2021/04/27 10:52:34;;;;;;;13.93;5.60;;;;;;;14.43;70.25;72184.88;4930758;29;20179;-96
2021/04/27 10:55:30;;;;;;;9.40;5.78;;;;;;;14.49;70.46;72186.50;4947036;29;20027;-95
2021/04/27 10:58:04;;;;;;;10.05;5.28;;;;;;;13.03;71.11;72024.25;4945118;29;20507;-95
2021/04/27 11:00:40;;;;;;;14.30;5.80;;;;;;;14.57;71.05;72198.25;4944373;29;20037;-96
2021/04/27 11:03:23;;;;;;;18.00;5.85;;;;;;;11.89;70.20;71890.81;4947759;28;20031;-95
2021/04/27 11:05:52;;;;;;;16.90;6.35;;;;;;;14.74;70.45;72220.75;4944131;29;20090;-95
2021/04/27 11:08:20;;;;;;;9.30;5.70;;;;;;;14.70;70.54;72215.94;4944713;29;20035;-95
2021/04/27 11:10:50;;;;;;;13.10;4.97;;;;;;;13.72;70.59;72103.63;4944554;29;20294;-95
2021/04/27 11:13:16;;;;;;;;;;;;;;;14.68;70.64;72213.56;4944713;29;20035;-94
2021/04/27 11:15:46;;;;;;;16.95;5.93;;;;;;;13.41;70.38;72065.03;4951239;29;19914;-93
2021/04/27 11:18:18;;;;;;;15.93;6.15;;;;;;;14.56;71.21;72200.41;4953381;28;20043;-94
2021/04/27 11:21:03;;;;;;;14.73;5.30;;;;;;;14.68;70.96;72213.56;4955264;28;20059;-96
2021/04/27 11:24:05;;;;;;;9.13;4.85;;;;;;;13.91;70.93;72122.38;4968397;29;20020;-89
2021/04/27 11:26:41;;;;;;;10.00;5.57;;;;;;;13.40;71.27;72063.84;4962607;28;20035;-92
2021/04/27 11:29:16;;;;;;;14.68;5.28;;;;;;;13.72;70.73;72103.63;4930090;29;20485;-90
2021/04/27 11:32:10;;;;;;;13.73;5.50;;;;;;;14.73;70.89;72220.13;4958565;29;20508;-93
2021/04/27 11:34:53;;;;;;;13.57;5.00;;;;;;;13.21;70.79;72039.00;4948322;28;20062;-93
2021/04/27 11:37:22;;;;;;;15.82;6.30;;;;;;;13.06;70.76;72022.28;4958748;28;20038;-92
2021/04/27 11:39:50;;;;;;;6.72;5.07;;;;;;;13.67;70.62;72092.75;4961562;28;20024;-92
2021/04/27 11:42:31;;;;;;;12.23;5.70;;;;;;;14.50;70.56;72193.22;4956951;28;20035;-91
2021/04/27 11:45:08;;;;;;;13.48;5.18;;;;;;;14.86;70.57;72232.31;4929965;29;20035;-91